createdAt,value
2022-08-14T00:01:58.632Z,8.73
2022-08-14T00:04:35.256Z,8.82
2022-08-14T00:07:08.607Z,7.90
2022-08-14T00:09:55.947Z,7.68
2022-08-14T00:12:23.800Z,8.10
2022-08-14T00:14:54.957Z,8.20
2022-08-14T00:17:22.792Z,8.38
2022-08-14T00:19:49.946Z,8.43
2022-08-14T00:22:44.091Z,8.70
2022-08-14T00:25:07.243Z,8.23
2022-08-14T00:27:37.789Z,8.65
2022-08-14T00:30:06.938Z,8.73
2022-08-14T00:32:52.513Z,8.63
2022-08-14T00:35:21.868Z,8.52
2022-08-14T00:38:08.927Z,7.85
2022-08-14T00:40:36.976Z,8.88
2022-08-14T00:43:04.462Z,8.70
2022-08-14T00:45:31.770Z,8.57
2022-08-14T00:48:00.086Z,8.55
2022-08-14T00:50:31.040Z,9.05
2022-08-14T00:53:00.004Z,9.18
2022-08-14T00:55:27.841Z,9.10
2022-08-14T00:58:15.942Z,9.05
2022-08-14T01:00:50.970Z,8.98
2022-08-14T01:03:19.228Z,9.23
2022-08-14T01:05:51.819Z,11.00
2022-08-14T01:08:20.586Z,9.68
2022-08-14T01:11:07.255Z,9.75
2022-08-14T01:13:42.562Z,9.07
2022-08-14T01:16:14.886Z,9.52
2022-08-14T01:19:02.161Z,9.75
2022-08-14T01:21:34.771Z,10.30
2022-08-14T01:24:09.736Z,9.48
2022-08-14T01:26:39.240Z,9.60
2022-08-14T01:29:06.523Z,9.55
2022-08-14T01:31:37.115Z,9.77
2022-08-14T01:35:19.270Z,9.40
2022-08-14T01:36:55.118Z,9.13
2022-08-14T01:39:22.783Z,9.77
2022-08-14T01:41:56.286Z,9.65
2022-08-14T01:44:33.026Z,10.15
2022-08-14T01:47:01.835Z,9.07
2022-08-14T01:49:33.507Z,9.80
2022-08-14T01:52:03.659Z,8.88
2022-08-14T01:54:38.051Z,9.65
2022-08-14T01:57:11.710Z,9.38
2022-08-14T01:59:41.100Z,9.82
2022-08-14T02:02:19.025Z,9.45
2022-08-14T02:04:57.314Z,9.63
2022-08-14T02:07:34.728Z,9.63
2022-08-14T02:10:12.850Z,10.38
2022-08-14T02:12:42.625Z,10.10
2022-08-14T02:15:10.658Z,10.43
2022-08-14T02:17:37.900Z,10.70
2022-08-14T02:20:08.475Z,10.52
2022-08-14T02:22:35.646Z,10.55
2022-08-14T02:25:16.664Z,10.53
2022-08-14T02:28:24.310Z,10.70
2022-08-14T02:30:33.778Z,10.55
2022-08-14T02:33:01.243Z,10.80
2022-08-14T02:35:32.941Z,10.50
2022-08-14T02:38:00.983Z,10.45
2022-08-14T02:40:33.732Z,11.15
2022-08-14T02:43:02.466Z,10.60
2022-08-14T02:45:38.766Z,10.37
2022-08-14T02:49:02.468Z,10.32
2022-08-14T02:51:00.878Z,10.57
2022-08-14T02:53:29.371Z,10.07
2022-08-14T02:55:56.589Z,10.45
2022-08-14T02:58:31.100Z,11.27
2022-08-14T03:00:58.920Z,10.70
2022-08-14T03:03:26.080Z,10.93
2022-08-14T03:05:54.339Z,11.07
2022-08-14T03:08:22.688Z,11.00
2022-08-14T03:10:52.656Z,11.07
2022-08-14T03:13:24.649Z,10.75
2022-08-14T03:15:55.627Z,11.18
2022-08-14T03:18:31.277Z,12.10
2022-08-14T03:21:08.951Z,12.30
2022-08-14T03:23:38.436Z,12.00
2022-08-14T03:26:08.449Z,13.07
2022-08-14T03:28:36.601Z,10.83
2022-08-14T03:31:04.298Z,11.68
2022-08-14T03:33:40.282Z,11.43
2022-08-14T03:37:37.888Z,12.20
2022-08-14T03:39:12.601Z,11.90
2022-08-14T03:41:47.510Z,12.10
2022-08-14T03:45:19.128Z,12.13
2022-08-14T03:47:02.994Z,11.85
2022-08-14T03:49:30.384Z,12.63
2022-08-14T03:52:04.743Z,13.10
2022-08-14T03:54:46.638Z,12.15
2022-08-14T03:57:20.219Z,12.05
2022-08-14T03:59:49.947Z,12.20
2022-08-14T04:02:32.707Z,12.80
2022-08-14T04:05:08.439Z,11.70
2022-08-14T04:07:39.691Z,12.00
2022-08-14T04:10:17.507Z,11.77
2022-08-14T04:12:53.531Z,12.00
2022-08-14T04:15:25.304Z,11.77
2022-08-14T04:17:52.454Z,13.23
2022-08-14T04:20:25.623Z,12.15
2022-08-14T04:22:53.221Z,13.15
2022-08-14T04:25:22.787Z,12.77
2022-08-14T04:28:02.399Z,12.75
2022-08-14T04:30:33.085Z,12.32
2022-08-14T04:33:06.433Z,12.60
2022-08-14T04:35:55.413Z,13.52
2022-08-14T04:38:41.746Z,13.30
2022-08-14T04:41:30.257Z,14.00
2022-08-14T04:43:58.058Z,13.63
2022-08-14T04:46:55.728Z,13.88
2022-08-14T04:49:15.073Z,12.82
2022-08-14T04:51:46.878Z,13.40
2022-08-14T04:54:24.620Z,12.95
2022-08-14T04:56:51.709Z,12.25
2022-08-14T04:59:21.627Z,12.95
2022-08-14T05:01:52.844Z,12.90
2022-08-14T05:04:22.944Z,12.70
2022-08-14T05:06:55.015Z,12.57
2022-08-14T05:09:23.293Z,12.65
2022-08-14T05:11:51.510Z,11.82
2022-08-14T05:14:45.498Z,12.27
2022-08-14T05:17:06.852Z,12.07
2022-08-14T05:19:44.259Z,12.40
2022-08-14T05:22:21.502Z,12.10
2022-08-14T05:24:51.489Z,12.52
2022-08-14T05:27:22.924Z,12.43
2022-08-14T05:29:51.795Z,12.23
2022-08-14T05:32:18.867Z,12.70
2022-08-14T05:34:47.279Z,13.02
2022-08-14T05:37:15.209Z,11.82
2022-08-14T05:39:42.862Z,12.43
2022-08-14T05:42:21.576Z,11.55
2022-08-14T05:44:49.612Z,12.47
2022-08-14T05:47:21.251Z,11.70
2022-08-14T05:49:48.454Z,11.05
2022-08-14T05:52:18.152Z,11.75
2022-08-14T05:54:45.392Z,11.70
2022-08-14T05:57:12.451Z,11.07
2022-08-14T05:59:40.140Z,10.93
2022-08-14T06:02:10.792Z,11.27
2022-08-14T06:04:38.974Z,10.20
2022-08-14T06:07:06.323Z,10.30
2022-08-14T06:09:35.685Z,9.95
2022-08-14T06:12:08.050Z,10.30
2022-08-14T06:14:35.274Z,10.40
2022-08-14T06:17:03.739Z,9.60
2022-08-14T06:19:30.856Z,9.68
2022-08-14T06:21:58.397Z,9.18
2022-08-14T06:24:26.887Z,9.13
2022-08-14T06:26:56.710Z,9.32
2022-08-14T06:29:33.380Z,9.32
2022-08-14T06:32:36.660Z,8.80
2022-08-14T06:35:10.675Z,8.65
2022-08-14T06:37:47.876Z,8.32
2022-08-14T06:40:26.200Z,8.95
2022-08-14T06:42:55.637Z,8.65
2022-08-14T06:45:26.315Z,8.05
2022-08-14T06:50:21.690Z,7.47
2022-08-14T06:52:55.437Z,6.90
2022-08-14T06:55:27.806Z,6.85
2022-08-14T06:57:56.217Z,6.28
2022-08-14T07:00:30.914Z,6.90
2022-08-14T07:03:17.612Z,6.50
2022-08-14T07:05:55.282Z,6.25
2022-08-14T07:08:29.582Z,6.13
2022-08-14T07:11:00.038Z,5.63
2022-08-14T07:13:28.246Z,5.97
2022-08-14T07:15:55.704Z,6.28
2022-08-14T07:18:29.749Z,5.70
2022-08-14T07:20:57.795Z,6.10
2022-08-14T07:23:25.793Z,6.40
2022-08-14T07:25:53.483Z,6.10
2022-08-14T07:28:23.385Z,5.93
2022-08-14T07:30:51.978Z,6.00
2022-08-14T07:33:20.859Z,6.47
2022-08-14T07:35:58.326Z,6.03
2022-08-14T07:38:35.488Z,5.72
2022-08-14T07:41:11.729Z,5.68
2022-08-14T07:43:42.575Z,5.75
2022-08-14T07:46:11.150Z,5.60
2022-08-14T07:48:43.867Z,5.68
2022-08-14T07:51:11.505Z,5.05
2022-08-14T07:53:40.752Z,5.43
2022-08-14T07:56:21.385Z,5.50
2022-08-14T07:58:51.807Z,6.15
2022-08-14T08:01:19.815Z,5.70
2022-08-14T08:03:49.499Z,5.65
2022-08-14T08:06:17.750Z,5.60
2022-08-14T08:08:44.851Z,5.57
2022-08-14T08:11:30.088Z,5.30
2022-08-14T08:14:10.681Z,5.07
2022-08-14T08:16:47.454Z,5.47
2022-08-14T08:19:19.004Z,6.00
2022-08-14T08:21:46.854Z,5.28
2022-08-14T08:24:18.436Z,5.45
2022-08-14T08:26:46.724Z,4.78
2022-08-14T08:29:19.774Z,5.47
2022-08-14T08:31:52.514Z,4.82
2022-08-14T08:34:19.764Z,5.13
2022-08-14T08:36:50.225Z,5.10
2022-08-14T08:39:22.540Z,6.50
2022-08-14T08:41:53.191Z,6.63
2022-08-14T08:44:31.791Z,6.05
2022-08-14T08:47:05.134Z,4.55
2022-08-14T08:49:43.125Z,4.38
2022-08-14T08:52:25.222Z,3.80
2022-08-14T08:54:57.939Z,3.70
2022-08-14T08:57:25.463Z,4.00
2022-08-14T08:59:55.011Z,3.67
2022-08-14T09:02:22.592Z,3.95
2022-08-14T09:04:53.944Z,3.78
2022-08-14T09:07:31.162Z,3.80
2022-08-14T09:10:00.018Z,3.65
2022-08-14T09:12:32.289Z,3.90
2022-08-14T09:15:01.722Z,3.50
2022-08-14T09:17:28.382Z,8.80
2022-08-14T09:19:55.757Z,11.02
2022-08-14T09:22:35.018Z,3.40
2022-08-14T09:25:07.356Z,3.72
2022-08-14T09:27:35.545Z,3.42
2022-08-14T09:30:31.542Z,3.45
2022-08-14T09:32:59.283Z,2.83
2022-08-14T09:35:45.487Z,2.92
2022-08-14T09:38:47.910Z,2.65
2022-08-14T09:42:21.298Z,2.60
2022-08-14T09:45:18.787Z,2.60
2022-08-14T09:47:53.357Z,2.72
2022-08-14T09:50:26.164Z,2.45
2022-08-14T09:53:04.531Z,2.85
2022-08-14T09:55:42.358Z,2.63
2022-08-14T09:58:19.441Z,2.53
2022-08-14T10:00:57.326Z,2.58
2022-08-14T10:03:28.663Z,2.95
2022-08-14T10:06:08.672Z,3.00
2022-08-14T10:08:50.679Z,2.42
2022-08-14T10:11:24.660Z,2.80
2022-08-14T10:14:29.554Z,3.63
2022-08-14T10:17:04.680Z,2.97
2022-08-14T10:19:35.395Z,3.05
2022-08-14T10:23:13.328Z,2.80
2022-08-14T10:24:57.094Z,2.65
2022-08-14T10:27:24.941Z,2.63
2022-08-14T10:29:59.744Z,2.60
2022-08-14T10:32:29.169Z,2.58
2022-08-14T10:35:13.445Z,2.50
2022-08-14T10:37:42.137Z,2.67
2022-08-14T10:40:37.456Z,2.47
2022-08-14T10:42:58.666Z,2.53
2022-08-14T10:45:35.561Z,2.20
2022-08-14T10:48:09.192Z,2.38
2022-08-14T10:50:38.536Z,2.60
2022-08-14T10:53:07.968Z,2.80
2022-08-14T10:58:11.908Z,2.70
2022-08-14T11:00:46.937Z,2.60
2022-08-14T11:03:20.049Z,2.85
2022-08-14T11:06:01.620Z,3.05
2022-08-14T11:08:33.331Z,2.50
2022-08-14T11:11:02.066Z,2.60
2022-08-14T11:13:30.055Z,2.43
2022-08-14T11:16:00.483Z,2.60
2022-08-14T11:18:32.258Z,2.90
2022-08-14T11:21:03.543Z,2.75
2022-08-14T11:23:37.758Z,2.50
2022-08-14T11:26:08.858Z,2.67
2022-08-14T11:28:47.302Z,2.70
2022-08-14T11:31:23.270Z,2.47
2022-08-14T11:33:59.388Z,2.40
2022-08-14T11:36:57.264Z,2.50
2022-08-14T11:39:33.819Z,2.20
2022-08-14T11:42:55.491Z,2.72
2022-08-14T11:44:53.872Z,2.47
2022-08-14T11:47:24.697Z,2.38
2022-08-14T11:49:51.830Z,2.35
2022-08-14T11:52:19.300Z,2.30
2022-08-14T11:54:57.295Z,2.60
2022-08-14T11:57:23.938Z,2.15
2022-08-14T12:00:00.903Z,2.70
2022-08-14T12:03:00.324Z,2.60
2022-08-14T12:05:14.555Z,2.72
2022-08-14T12:07:53.237Z,2.72
2022-08-14T12:10:27.193Z,2.50
2022-08-14T12:13:27.406Z,2.33
2022-08-14T12:16:00.216Z,2.70
2022-08-14T12:18:37.559Z,2.80
2022-08-14T12:21:19.346Z,2.40
2022-08-14T12:23:47.551Z,2.50
2022-08-14T12:26:39.651Z,2.60
2022-08-14T12:29:16.517Z,2.40
2022-08-14T12:31:46.805Z,2.22
2022-08-14T12:34:15.229Z,2.50
2022-08-14T12:36:47.586Z,2.97
2022-08-14T12:39:23.891Z,3.35
2022-08-14T12:41:57.374Z,2.55
2022-08-14T12:44:34.930Z,2.63
2022-08-14T12:47:06.123Z,2.20
2022-08-14T12:49:34.053Z,2.42
2022-08-14T12:52:02.158Z,1.90
2022-08-14T12:54:32.090Z,2.08
2022-08-14T12:57:14.641Z,2.50
2022-08-14T12:59:45.628Z,2.20
2022-08-14T13:02:26.364Z,2.15
2022-08-14T13:04:55.496Z,2.10
2022-08-14T13:07:22.172Z,3.45
2022-08-14T13:09:55.315Z,2.40
2022-08-14T13:12:32.690Z,2.40
2022-08-14T13:15:09.039Z,2.05
2022-08-14T13:17:44.623Z,2.30
2022-08-14T13:20:23.134Z,2.03
2022-08-14T13:22:52.190Z,2.08
2022-08-14T13:25:21.062Z,2.10
2022-08-14T13:27:50.057Z,2.05
2022-08-14T13:30:24.178Z,1.88
2022-08-14T13:32:52.349Z,2.00
2022-08-14T13:35:19.698Z,2.08
2022-08-14T13:37:49.856Z,2.13
2022-08-14T13:40:20.071Z,2.00
2022-08-14T13:42:48.302Z,2.08
2022-08-14T13:45:22.190Z,2.10
2022-08-14T13:47:51.474Z,2.30
2022-08-14T13:50:20.656Z,1.90
2022-08-14T13:55:25.756Z,1.90
2022-08-14T13:58:04.082Z,1.92
2022-08-14T14:00:36.099Z,2.17
2022-08-14T14:03:21.944Z,2.00
2022-08-14T14:05:55.056Z,2.10
2022-08-14T14:08:45.796Z,1.88
2022-08-14T14:11:16.361Z,2.20
2022-08-14T14:13:45.323Z,2.15
2022-08-14T14:18:55.770Z,1.98
2022-08-14T14:21:24.614Z,2.10
2022-08-14T14:23:53.226Z,2.10
2022-08-14T14:26:23.898Z,2.20
2022-08-14T14:28:56.789Z,2.22
2022-08-14T14:31:30.240Z,2.10
2022-08-14T14:33:59.630Z,2.38
2022-08-14T14:36:27.994Z,2.00
2022-08-14T14:39:02.515Z,1.90
2022-08-14T14:41:37.860Z,2.22
2022-08-14T14:44:06.575Z,2.20
2022-08-14T14:46:37.272Z,1.90
2022-08-14T14:49:06.600Z,1.80
2022-08-14T14:51:34.641Z,1.90
2022-08-14T14:54:02.214Z,1.80
2022-08-14T14:56:50.193Z,1.80
2022-08-14T14:59:19.258Z,1.60
2022-08-14T15:01:49.081Z,1.90
2022-08-14T15:04:20.935Z,1.73
2022-08-14T15:06:48.575Z,1.90
2022-08-14T15:09:18.161Z,1.83
2022-08-14T15:11:47.106Z,2.17
2022-08-14T15:17:01.949Z,1.80
2022-08-14T15:19:29.619Z,1.80
2022-08-14T15:21:57.705Z,1.70
2022-08-14T15:24:26.894Z,1.60
2022-08-14T15:26:54.427Z,1.65
2022-08-14T15:29:21.058Z,1.80
2022-08-14T15:31:47.962Z,1.88
2022-08-14T15:34:43.571Z,1.88
2022-08-14T15:37:03.253Z,2.08
2022-08-14T15:39:34.000Z,2.03
2022-08-14T15:42:04.239Z,2.13
2022-08-14T15:44:44.842Z,2.00
2022-08-14T15:47:28.099Z,2.00
2022-08-14T15:49:59.516Z,2.08
2022-08-14T15:52:33.129Z,1.75
2022-08-14T15:55:07.975Z,1.98
2022-08-14T15:57:35.441Z,2.08
2022-08-14T16:00:34.054Z,1.80
2022-08-14T16:03:11.549Z,2.08
2022-08-14T16:05:38.898Z,2.13
2022-08-14T16:08:28.853Z,1.67
2022-08-14T16:10:54.532Z,1.90
2022-08-14T16:13:39.511Z,1.98
2022-08-14T16:16:47.516Z,2.03
2022-08-14T16:19:00.832Z,2.17
2022-08-14T16:21:31.646Z,2.60
2022-08-14T16:23:59.573Z,2.13
2022-08-14T16:26:30.067Z,1.83
2022-08-14T16:29:05.394Z,2.15
2022-08-14T16:31:35.716Z,2.17
2022-08-14T16:34:44.291Z,2.35
2022-08-14T16:36:53.958Z,1.80
2022-08-14T16:39:21.239Z,2.20
2022-08-14T16:41:52.165Z,2.20
2022-08-14T16:44:31.392Z,2.35
2022-08-14T16:46:59.766Z,2.42
2022-08-14T16:50:03.176Z,2.20
2022-08-14T16:52:25.017Z,2.40
2022-08-14T16:54:52.051Z,2.50
2022-08-14T16:57:24.299Z,2.60
2022-08-14T16:59:57.820Z,2.38
2022-08-14T17:02:37.003Z,2.75
2022-08-14T17:05:21.818Z,2.40
2022-08-14T17:08:32.343Z,2.47
2022-08-14T17:11:09.865Z,2.65
2022-08-14T17:13:48.012Z,2.30
2022-08-14T17:16:26.088Z,2.40
2022-08-14T17:19:03.664Z,2.50
2022-08-14T17:21:41.654Z,2.55
2022-08-14T17:24:55.769Z,2.55
2022-08-14T17:27:00.098Z,2.80
2022-08-14T17:29:31.823Z,2.85
2022-08-14T17:32:03.559Z,2.47
2022-08-14T17:35:04.288Z,2.88
2022-08-14T17:37:45.848Z,2.83
2022-08-14T17:40:18.906Z,3.70
2022-08-14T17:42:51.800Z,3.35
2022-08-14T17:45:41.229Z,4.40
2022-08-14T17:49:10.133Z,4.50
2022-08-14T17:51:23.397Z,2.90
2022-08-14T17:53:53.331Z,2.80
2022-08-14T17:56:28.954Z,3.10
2022-08-14T17:59:02.159Z,2.90
2022-08-14T18:01:31.017Z,3.00
2022-08-14T18:03:58.764Z,2.95
2022-08-14T18:06:38.780Z,2.60
2022-08-14T18:09:25.103Z,2.95
2022-08-14T18:11:54.407Z,3.10
2022-08-14T18:14:31.668Z,3.60
2022-08-14T18:17:00.813Z,2.85
2022-08-14T18:19:28.843Z,2.88
2022-08-14T18:21:57.916Z,2.83
2022-08-14T18:24:29.624Z,3.63
2022-08-14T18:27:12.467Z,3.80
2022-08-14T18:29:56.259Z,3.42
2022-08-14T18:32:27.743Z,3.83
2022-08-14T18:35:01.269Z,4.75
2022-08-14T18:37:30.880Z,3.65
2022-08-14T18:40:17.690Z,3.88
2022-08-14T18:42:47.556Z,4.38
2022-08-14T18:45:28.975Z,4.10
2022-08-14T18:48:18.532Z,3.40
2022-08-14T18:51:02.456Z,4.10
2022-08-14T18:53:34.332Z,3.72
2022-08-14T18:56:09.805Z,3.60
2022-08-14T18:58:56.823Z,3.40
2022-08-14T19:01:29.832Z,4.20
2022-08-14T19:03:58.079Z,3.70
2022-08-14T19:06:41.734Z,6.45
2022-08-14T19:09:34.486Z,4.05
2022-08-14T19:12:01.136Z,3.30
2022-08-14T19:14:43.918Z,3.35
2022-08-14T19:17:41.748Z,3.60
2022-08-14T19:20:09.275Z,3.30
2022-08-14T19:22:37.535Z,3.60
2022-08-14T19:25:05.806Z,4.03
2022-08-14T19:27:37.665Z,3.72
2022-08-14T19:30:20.259Z,3.67
2022-08-14T19:32:51.716Z,4.45
2022-08-14T19:35:23.438Z,4.82
2022-08-14T19:37:56.109Z,4.57
2022-08-14T19:40:39.923Z,4.28
2022-08-14T19:43:09.225Z,5.40
2022-08-14T19:45:37.283Z,4.78
2022-08-14T19:48:09.951Z,4.40
2022-08-14T19:50:41.215Z,4.07
2022-08-14T19:55:54.515Z,4.50
2022-08-14T19:58:30.047Z,4.10
2022-08-14T20:00:58.009Z,5.22
2022-08-14T20:03:24.985Z,3.83
2022-08-14T20:06:05.411Z,3.60
2022-08-14T20:10:59.613Z,3.80
2022-08-14T20:12:02.181Z,4.00
2022-08-14T20:14:28.004Z,4.30
2022-08-14T20:17:03.180Z,5.80
2022-08-14T20:19:33.747Z,5.25
2022-08-14T20:22:35.118Z,5.43
2022-08-14T20:24:54.406Z,4.55
2022-08-14T20:27:33.379Z,4.78
2022-08-14T20:30:34.143Z,4.82
2022-08-14T20:33:00.134Z,4.45
2022-08-14T20:35:35.287Z,4.95
2022-08-14T20:38:29.052Z,4.40
2022-08-14T20:40:58.384Z,4.40
2022-08-14T20:43:45.420Z,4.53
2022-08-14T20:46:33.689Z,4.63
2022-08-14T20:49:16.958Z,5.10
2022-08-14T20:51:58.680Z,4.15
2022-08-14T20:54:34.427Z,4.25
2022-08-14T20:57:10.062Z,4.88
2022-08-14T20:59:43.306Z,4.90
2022-08-14T21:02:38.734Z,4.78
2022-08-14T21:05:19.789Z,4.68
2022-08-14T21:07:51.420Z,5.32
2022-08-14T21:10:33.367Z,4.68
2022-08-14T21:13:25.873Z,5.00
2022-08-14T21:15:57.635Z,4.70
2022-08-14T21:18:28.627Z,4.80
2022-08-14T21:20:56.292Z,4.90
2022-08-14T21:23:23.167Z,4.57
2022-08-14T21:25:49.963Z,5.30
2022-08-14T21:28:30.534Z,4.57
2022-08-14T21:31:02.606Z,5.05
2022-08-14T21:33:29.247Z,6.10
2022-08-14T21:35:57.193Z,5.10
2022-08-14T21:38:33.818Z,5.05
2022-08-14T21:41:49.975Z,5.53
2022-08-14T21:44:17.441Z,5.03
2022-08-14T21:46:47.808Z,5.28
2022-08-14T21:49:16.686Z,5.22
2022-08-14T21:51:55.227Z,4.80
2022-08-14T21:54:49.093Z,5.25
2022-08-14T21:57:20.846Z,5.10
2022-08-14T22:00:34.887Z,5.40
2022-08-14T22:03:00.621Z,5.38
2022-08-14T22:05:29.546Z,4.85
2022-08-14T22:07:56.899Z,5.10
2022-08-14T22:10:24.314Z,5.15
2022-08-14T22:13:00.268Z,5.13
2022-08-14T22:15:28.296Z,5.60
2022-08-14T22:17:55.299Z,5.20
2022-08-14T22:20:22.854Z,6.13
2022-08-14T22:22:56.077Z,5.55
2022-08-14T22:25:34.075Z,5.53
2022-08-14T22:28:09.880Z,5.63
2022-08-14T22:30:36.988Z,5.40
2022-08-14T22:33:05.677Z,5.40
2022-08-14T22:35:32.814Z,5.50
2022-08-14T22:38:34.898Z,5.50
2022-08-14T22:41:03.356Z,5.47
2022-08-14T22:43:36.095Z,4.97
2022-08-14T22:46:06.307Z,5.40
2022-08-14T22:48:42.249Z,5.65
2022-08-14T22:51:08.947Z,5.50
2022-08-14T22:53:40.161Z,5.63
2022-08-14T22:56:20.606Z,5.57
2022-08-14T22:58:49.864Z,6.25
2022-08-14T23:01:24.083Z,5.18
2022-08-14T23:04:10.749Z,5.72
2022-08-14T23:07:02.019Z,5.38
2022-08-14T23:09:35.237Z,4.90
2022-08-14T23:12:06.313Z,5.75
2022-08-14T23:14:53.037Z,5.90
2022-08-14T23:17:22.399Z,5.90
2022-08-14T23:19:49.034Z,5.72
2022-08-14T23:22:24.263Z,5.60
2022-08-14T23:24:53.310Z,5.38
2022-08-14T23:27:31.626Z,5.57
2022-08-14T23:30:31.556Z,5.75
2022-08-14T23:33:01.836Z,5.22
2022-08-14T23:35:28.821Z,6.70
2022-08-14T23:38:01.795Z,6.78
2022-08-14T23:40:30.139Z,6.90
2022-08-14T23:43:11.334Z,5.63
2022-08-14T23:45:47.159Z,5.82
2022-08-14T23:48:20.694Z,5.85
2022-08-14T23:50:51.119Z,6.05
2022-08-14T23:53:28.358Z,4.80
2022-08-14T23:56:12.176Z,5.18
2022-08-14T23:58:39.095Z,5.00
